createdAt,value
2023-03-10T00:02:20.728Z,0.38
2023-03-10T00:04:51.703Z,2.58
2023-03-10T00:07:18.885Z,1.45
2023-03-10T00:09:45.916Z,1.83
2023-03-10T00:12:13.038Z,3.60
2023-03-10T00:14:39.988Z,5.95
2023-03-10T00:17:07.212Z,0.30
2023-03-10T00:19:34.791Z,0.15
2023-03-10T00:22:03.805Z,0.52
2023-03-10T00:24:30.727Z,1.77
2023-03-10T00:26:57.726Z,2.25
2023-03-10T00:29:26.783Z,0.93
2023-03-10T00:31:54.157Z,0.25
2023-03-10T00:34:21.241Z,2.13
2023-03-10T00:36:48.468Z,2.60
2023-03-10T00:39:15.408Z,0.70
2023-03-10T00:41:43.090Z,2.65
2023-03-10T00:44:10.180Z,0.47
2023-03-10T00:46:38.909Z,0.10
2023-03-10T00:49:07.612Z,0.85
2023-03-10T00:51:35.605Z,0.10
2023-03-10T00:54:03.674Z,4.10
2023-03-10T00:56:30.955Z,0.65
2023-03-10T00:58:59.572Z,0.60
2023-03-10T01:01:28.286Z,2.90
2023-03-10T01:03:56.488Z,1.15
2023-03-10T01:06:24.368Z,0.20
2023-03-10T01:08:52.522Z,1.63
2023-03-10T01:11:22.327Z,1.70
2023-03-10T01:13:49.756Z,1.63
2023-03-10T01:16:17.116Z,2.03
2023-03-10T01:18:44.247Z,0.50
2023-03-10T01:21:22.342Z,0.80
2023-03-10T01:23:49.538Z,4.20
2023-03-10T01:26:18.725Z,1.20
2023-03-10T01:28:47.748Z,0.82
2023-03-10T01:31:15.369Z,0.85
2023-03-10T01:33:42.948Z,0.63
2023-03-10T01:36:18.093Z,0.10
2023-03-10T01:38:46.337Z,1.10
2023-03-10T01:41:14.111Z,0.52
2023-03-10T01:43:42.295Z,0.55
2023-03-10T01:46:27.716Z,1.13
2023-03-10T01:48:58.274Z,1.27
2023-03-10T01:51:25.242Z,1.75
2023-03-10T01:53:52.485Z,0.32
2023-03-10T01:56:19.529Z,0.05
2023-03-10T01:58:46.557Z,0.00
2023-03-10T02:01:13.776Z,1.67
2023-03-10T02:03:47.584Z,0.38
2023-03-10T02:06:15.187Z,0.05
2023-03-10T02:08:44.631Z,1.27
2023-03-10T02:11:14.053Z,0.73
2023-03-10T02:13:42.550Z,0.93
2023-03-10T02:16:09.732Z,0.20
2023-03-10T02:18:36.716Z,0.47
2023-03-10T02:21:19.122Z,0.65
2023-03-10T02:24:00.853Z,0.98
2023-03-10T02:27:02.000Z,0.00
2023-03-10T02:29:58.885Z,2.40
2023-03-10T02:32:30.442Z,0.82
2023-03-10T02:34:57.402Z,2.75
2023-03-10T02:37:30.443Z,1.38
2023-03-10T02:39:58.023Z,0.77
2023-03-10T02:42:27.545Z,2.00
2023-03-10T02:44:54.750Z,0.45
2023-03-10T02:47:21.759Z,0.20
2023-03-10T02:49:48.780Z,1.85
2023-03-10T02:52:29.743Z,0.45
2023-03-10T02:54:56.820Z,1.15
2023-03-10T02:57:23.850Z,0.28
2023-03-10T02:59:50.913Z,0.57
2023-03-10T03:02:17.858Z,0.00
2023-03-10T03:04:45.175Z,0.00
2023-03-10T03:07:12.170Z,0.28
2023-03-10T03:09:39.628Z,1.58
2023-03-10T03:12:07.007Z,0.88
2023-03-10T03:14:34.122Z,0.00
2023-03-10T03:17:03.384Z,2.05
2023-03-10T03:19:30.437Z,0.73
2023-03-10T03:21:58.049Z,0.75
2023-03-10T03:24:25.337Z,1.00
2023-03-10T03:26:52.273Z,1.17
2023-03-10T03:29:23.682Z,6.28
2023-03-10T03:31:50.896Z,0.52
2023-03-10T03:34:24.413Z,1.75
2023-03-10T03:36:54.487Z,0.20
2023-03-10T03:39:27.185Z,0.38
2023-03-10T03:41:58.509Z,0.30
2023-03-10T03:44:29.825Z,0.10
2023-03-10T03:46:57.303Z,0.73
2023-03-10T03:49:25.668Z,0.85
2023-03-10T03:51:52.712Z,0.88
2023-03-10T03:54:22.027Z,2.90
2023-03-10T03:56:49.050Z,0.88
2023-03-10T03:59:16.656Z,3.60
2023-03-10T04:01:44.241Z,0.22
2023-03-10T04:04:11.443Z,1.30
2023-03-10T04:06:38.581Z,0.80
2023-03-10T04:09:08.353Z,0.35
2023-03-10T04:11:35.281Z,0.65
2023-03-10T04:14:02.834Z,4.90
2023-03-10T04:16:29.798Z,2.50
2023-03-10T04:18:56.848Z,6.97
2023-03-10T04:21:24.506Z,3.25
2023-03-10T04:23:54.250Z,4.38
2023-03-10T04:26:25.365Z,1.10
2023-03-10T04:28:52.327Z,1.10
2023-03-10T04:31:21.795Z,3.05
2023-03-10T04:33:50.452Z,3.15
2023-03-10T04:36:18.456Z,3.05
2023-03-10T04:38:48.454Z,1.65
2023-03-10T04:41:15.866Z,10.50
2023-03-10T04:43:47.487Z,4.50
2023-03-10T04:46:15.627Z,1.67
2023-03-10T04:48:42.944Z,3.03
2023-03-10T04:51:11.375Z,7.72
2023-03-10T04:53:44.655Z,6.72
2023-03-10T04:56:15.139Z,4.78
2023-03-10T04:58:42.974Z,5.43
2023-03-10T05:01:11.635Z,6.43
2023-03-10T05:03:43.204Z,5.45
2023-03-10T05:06:21.366Z,8.20
2023-03-10T05:09:05.115Z,2.53
2023-03-10T05:11:33.390Z,3.25
2023-03-10T05:14:00.615Z,6.13
2023-03-10T05:16:28.184Z,1.58
2023-03-10T05:18:55.224Z,2.10
2023-03-10T05:21:26.457Z,0.98
2023-03-10T05:23:55.183Z,1.75
2023-03-10T05:26:23.906Z,3.25
2023-03-10T05:28:50.985Z,2.65
2023-03-10T05:31:27.148Z,2.80
2023-03-10T05:34:00.442Z,0.75
2023-03-10T05:36:27.599Z,0.73
2023-03-10T05:38:54.677Z,1.15
2023-03-10T05:41:21.647Z,1.20
2023-03-10T05:43:52.467Z,0.73
2023-03-10T05:46:20.060Z,1.08
2023-03-10T05:48:52.465Z,1.60
2023-03-10T05:51:19.513Z,0.80
2023-03-10T05:53:47.448Z,1.13
2023-03-10T05:56:20.285Z,1.05
2023-03-10T05:58:51.288Z,0.38
2023-03-10T06:01:21.474Z,2.50
2023-03-10T06:03:48.587Z,0.50
2023-03-10T06:06:15.609Z,2.75
2023-03-10T06:08:43.097Z,0.73
2023-03-10T06:11:10.186Z,0.80
2023-03-10T06:13:37.175Z,3.47
2023-03-10T06:16:05.194Z,0.77
2023-03-10T06:18:32.320Z,1.00
2023-03-10T06:20:59.263Z,0.47
2023-03-10T06:23:26.578Z,0.40
2023-03-10T06:26:00.650Z,0.67
2023-03-10T06:28:32.783Z,0.30
2023-03-10T06:31:00.689Z,0.63
2023-03-10T06:33:27.916Z,0.20
2023-03-10T06:35:55.004Z,0.57
2023-03-10T06:38:22.503Z,0.20
2023-03-10T06:40:49.704Z,0.40
2023-03-10T06:43:17.324Z,0.10
2023-03-10T06:45:45.203Z,0.40
2023-03-10T06:48:12.530Z,0.38
2023-03-10T06:50:45.248Z,0.20
2023-03-10T06:53:12.280Z,0.10
2023-03-10T06:55:39.230Z,0.10
2023-03-10T06:58:06.189Z,2.37
2023-03-10T07:00:33.668Z,1.93
2023-03-10T07:03:00.785Z,0.10
2023-03-10T07:05:27.935Z,0.60
2023-03-10T07:07:55.504Z,0.10
2023-03-10T07:10:22.970Z,0.67
2023-03-10T07:12:55.058Z,0.00
2023-03-10T07:15:22.717Z,0.00
2023-03-10T07:17:49.760Z,0.00
2023-03-10T07:20:18.446Z,0.00
2023-03-10T07:22:45.468Z,0.13
2023-03-10T07:25:12.450Z,0.10
2023-03-10T07:27:39.567Z,0.40
2023-03-10T07:30:07.191Z,0.13
2023-03-10T07:32:34.162Z,0.83
2023-03-10T07:35:01.388Z,0.10
2023-03-10T07:37:28.569Z,0.40
2023-03-10T07:39:55.661Z,0.00
2023-03-10T07:42:34.696Z,0.30
2023-03-10T07:45:01.847Z,0.07
2023-03-10T07:47:28.975Z,0.30
2023-03-10T07:49:56.008Z,1.03
2023-03-10T07:52:23.234Z,0.67
2023-03-10T07:54:50.404Z,0.20
2023-03-10T07:57:17.456Z,0.87
2023-03-10T07:59:45.040Z,0.00
2023-03-10T08:02:14.646Z,0.00
2023-03-10T08:04:42.800Z,0.03
2023-03-10T08:07:10.727Z,0.40
2023-03-10T08:09:39.013Z,0.40
2023-03-10T08:12:09.363Z,0.37
2023-03-10T08:14:36.608Z,0.00
2023-03-10T08:17:04.034Z,0.77
2023-03-10T08:19:31.217Z,0.00
2023-03-10T08:21:58.288Z,0.47
2023-03-10T08:24:26.482Z,4.90
2023-03-10T08:26:53.627Z,0.00
2023-03-10T08:29:20.940Z,0.00
2023-03-10T08:31:48.344Z,5.70
2023-03-10T08:34:15.813Z,0.30
2023-03-10T08:36:43.707Z,0.00
2023-03-10T08:39:12.476Z,0.10
2023-03-10T08:41:46.109Z,0.00
2023-03-10T08:44:15.533Z,0.40
2023-03-10T08:46:46.402Z,0.00
2023-03-10T08:49:14.988Z,0.00
2023-03-10T08:51:43.258Z,1.40
2023-03-10T08:54:17.256Z,1.37
2023-03-10T08:56:44.389Z,0.10
2023-03-10T08:59:12.731Z,1.50
2023-03-10T09:01:40.815Z,0.83
2023-03-10T09:04:09.148Z,0.23
2023-03-10T09:06:38.243Z,0.10
2023-03-10T09:09:06.515Z,4.03
2023-03-10T09:11:37.742Z,0.00
2023-03-10T09:14:06.260Z,1.10
2023-03-10T09:16:33.975Z,0.10
2023-03-10T09:19:01.420Z,0.73
2023-03-10T09:21:31.932Z,0.00
2023-03-10T09:24:26.039Z,0.53
2023-03-10T09:26:53.276Z,0.57
2023-03-10T09:29:27.068Z,3.50
2023-03-10T09:32:05.055Z,0.00
2023-03-10T09:34:34.365Z,0.00
2023-03-10T09:37:01.831Z,0.67
2023-03-10T09:39:33.799Z,0.00
2023-03-10T09:42:08.105Z,0.00
2023-03-10T09:44:54.397Z,0.00
2023-03-10T09:48:45.211Z,0.00
2023-03-10T09:51:22.241Z,0.00
2023-03-10T09:53:57.100Z,4.23
2023-03-10T09:56:33.015Z,0.10
2023-03-10T09:59:22.260Z,0.00
2023-03-10T10:02:21.051Z,0.50
2023-03-10T10:04:49.391Z,0.00
2023-03-10T10:07:20.406Z,0.00
2023-03-10T10:09:53.337Z,0.00
2023-03-10T10:12:23.790Z,2.30
2023-03-10T10:15:07.497Z,0.00
2023-03-10T10:18:05.575Z,0.00
2023-03-10T10:20:51.286Z,0.00
2023-03-10T10:23:44.785Z,0.00
2023-03-10T10:26:24.148Z,0.00
2023-03-10T10:28:55.835Z,0.00
2023-03-10T10:31:31.456Z,0.10
2023-03-10T10:34:03.660Z,0.00
2023-03-10T10:36:35.929Z,0.00
2023-03-10T10:39:08.655Z,0.00
2023-03-10T10:41:37.170Z,0.17
2023-03-10T10:44:15.350Z,0.50
2023-03-10T10:46:56.754Z,0.20
2023-03-10T10:49:26.112Z,0.00
2023-03-10T10:51:57.781Z,0.00
2023-03-10T10:54:32.574Z,0.57
2023-03-10T10:57:00.424Z,0.00
2023-03-10T10:59:33.283Z,0.00
2023-03-10T11:02:03.692Z,0.00
2023-03-10T11:04:44.455Z,0.00
2023-03-10T11:07:20.027Z,0.03
2023-03-10T11:09:47.975Z,0.00
2023-03-10T11:12:34.326Z,0.00
2023-03-10T11:15:20.072Z,1.45
2023-03-10T11:17:48.947Z,0.50
2023-03-10T11:20:23.667Z,0.00
2023-03-10T11:23:19.260Z,0.00
2023-03-10T11:25:53.496Z,0.63
2023-03-10T11:28:39.557Z,0.10
2023-03-10T11:31:18.897Z,0.00
2023-03-10T11:33:50.921Z,0.00
2023-03-10T11:36:55.065Z,0.00
2023-03-10T11:39:26.414Z,0.00
2023-03-10T11:42:00.071Z,0.00
2023-03-10T11:44:36.954Z,0.77
2023-03-10T11:47:33.149Z,0.00
2023-03-10T11:50:21.782Z,0.00
2023-03-10T11:52:48.835Z,0.00
2023-03-10T11:55:19.055Z,0.53
2023-03-10T11:57:47.428Z,0.50
2023-03-10T12:00:35.068Z,0.00
2023-03-10T12:03:27.786Z,0.10
2023-03-10T12:05:56.521Z,0.10
2023-03-10T12:08:24.618Z,0.10
2023-03-10T12:10:51.645Z,1.47
2023-03-10T12:13:33.456Z,0.53
2023-03-10T12:16:03.307Z,0.40
2023-03-10T12:18:30.277Z,0.20
2023-03-10T12:21:13.204Z,0.57
2023-03-10T12:23:42.203Z,0.30
2023-03-10T12:26:09.175Z,0.47
2023-03-10T12:28:36.116Z,0.17
2023-03-10T12:31:10.480Z,0.53
2023-03-10T12:33:37.725Z,0.00
2023-03-10T12:36:27.708Z,0.00
2023-03-10T12:38:57.844Z,0.73
2023-03-10T12:41:30.877Z,0.00
2023-03-10T12:44:26.862Z,0.00
2023-03-10T12:47:09.206Z,0.07
2023-03-10T12:49:53.821Z,0.77
2023-03-10T12:52:29.280Z,0.00
2023-03-10T12:55:18.611Z,0.10
2023-03-10T12:58:03.244Z,0.10
2023-03-10T13:00:48.285Z,0.10
2023-03-10T13:03:35.599Z,0.00
2023-03-10T13:06:07.223Z,0.00
2023-03-10T13:08:47.907Z,0.00
2023-03-10T13:11:25.135Z,2.20
2023-03-10T13:13:56.678Z,0.50
2023-03-10T13:16:23.927Z,0.00
2023-03-10T13:18:52.256Z,0.63
2023-03-10T13:21:28.714Z,1.70
2023-03-10T13:23:56.994Z,0.10
2023-03-10T13:26:25.339Z,0.00
2023-03-10T13:29:02.421Z,2.17
2023-03-10T13:31:33.161Z,0.10
2023-03-10T13:34:18.000Z,0.00
2023-03-10T13:36:45.289Z,2.67
2023-03-10T13:39:16.823Z,0.10
2023-03-10T13:41:52.652Z,1.90
2023-03-10T13:44:21.498Z,2.28
2023-03-10T13:47:00.694Z,1.03
2023-03-10T13:49:31.216Z,0.00
2023-03-10T13:52:04.005Z,0.00
2023-03-10T13:54:35.597Z,0.47
2023-03-10T13:57:38.426Z,3.80
2023-03-10T14:00:09.186Z,0.13
2023-03-10T14:02:39.952Z,2.33
2023-03-10T14:05:08.320Z,0.10
2023-03-10T14:07:36.783Z,0.00
2023-03-10T14:10:05.087Z,0.60
2023-03-10T14:13:00.395Z,0.63
2023-03-10T14:15:29.188Z,0.50
2023-03-10T14:18:13.930Z,0.10
2023-03-10T14:20:44.862Z,0.00
2023-03-10T14:23:26.469Z,0.10
2023-03-10T14:25:56.493Z,0.00
2023-03-10T14:28:30.362Z,0.40
2023-03-10T14:31:02.424Z,0.00
2023-03-10T14:33:29.905Z,0.00
2023-03-10T14:35:57.486Z,0.00
2023-03-10T14:38:24.756Z,0.63
2023-03-10T14:40:53.471Z,0.07
2023-03-10T14:43:25.247Z,0.93
2023-03-10T14:45:55.519Z,0.00
2023-03-10T14:48:49.802Z,0.00
2023-03-10T14:51:32.607Z,0.20
2023-03-10T14:54:01.765Z,0.27
2023-03-10T14:56:29.117Z,0.50
2023-03-10T14:58:58.323Z,0.00
2023-03-10T15:01:25.469Z,0.00
2023-03-10T15:03:52.784Z,1.23
2023-03-10T15:06:20.533Z,0.10
2023-03-10T15:08:47.672Z,0.00
2023-03-10T15:11:17.425Z,2.83
2023-03-10T15:13:48.498Z,0.87
2023-03-10T15:16:15.699Z,0.00
2023-03-10T15:18:42.794Z,0.90
2023-03-10T15:21:11.575Z,0.00
2023-03-10T15:23:40.034Z,0.53
2023-03-10T15:26:12.864Z,0.00
2023-03-10T15:28:41.177Z,0.43
2023-03-10T15:31:08.583Z,3.83
2023-03-10T15:33:35.794Z,0.00
2023-03-10T15:36:03.048Z,0.00
2023-03-10T15:38:30.318Z,0.57
2023-03-10T15:40:57.384Z,0.83
2023-03-10T15:43:24.568Z,4.73
2023-03-10T15:45:52.691Z,0.07
2023-03-10T15:48:19.702Z,1.30
2023-03-10T15:50:50.354Z,0.43
2023-03-10T15:53:19.786Z,2.53
2023-03-10T15:55:48.422Z,0.50
2023-03-10T15:58:15.472Z,2.10
2023-03-10T16:00:43.888Z,0.50
2023-03-10T16:03:17.007Z,5.67
2023-03-10T16:05:48.601Z,0.30
2023-03-10T16:12:24.310Z,10.37
2023-03-10T16:14:51.520Z,0.87
2023-03-10T16:17:20.930Z,1.33
2023-03-10T16:19:48.355Z,3.47
2023-03-10T16:22:15.889Z,4.70
2023-03-10T16:24:43.307Z,0.97
2023-03-10T16:27:10.593Z,2.13
2023-03-10T16:29:40.154Z,1.97
2023-03-10T16:32:12.089Z,1.23
2023-03-10T16:34:39.794Z,0.73
2023-03-10T16:37:08.280Z,0.97
2023-03-10T16:39:36.627Z,0.47
2023-03-10T16:42:04.078Z,0.33
2023-03-10T16:44:33.862Z,2.47
2023-03-10T16:47:01.950Z,1.07
2023-03-10T16:49:32.300Z,0.57
2023-03-10T16:52:00.148Z,0.93
2023-03-10T16:54:27.581Z,1.40
2023-03-10T16:56:57.185Z,2.13
2023-03-10T16:59:25.583Z,2.77
2023-03-10T17:01:53.493Z,1.40
2023-03-10T17:04:21.077Z,2.87
2023-03-10T17:06:48.700Z,1.60
2023-03-10T17:09:17.312Z,1.47
2023-03-10T17:11:47.089Z,0.60
2023-03-10T17:14:15.585Z,0.53
2023-03-10T17:16:44.705Z,3.63
2023-03-10T17:19:18.078Z,2.00
2023-03-10T17:21:50.084Z,0.10
2023-03-10T17:24:19.133Z,3.03
2023-03-10T17:26:46.935Z,0.00
2023-03-10T17:29:14.609Z,1.03
2023-03-10T17:31:43.992Z,0.20
2023-03-10T17:34:12.953Z,3.53
2023-03-10T17:36:40.610Z,0.97
2023-03-10T17:39:08.014Z,3.40
2023-03-10T17:41:36.038Z,4.43
2023-03-10T17:44:05.450Z,1.33
2023-03-10T17:46:35.095Z,5.00
2023-03-10T17:49:02.291Z,2.33
2023-03-10T17:51:30.614Z,6.53
2023-03-10T17:53:59.457Z,1.27
2023-03-10T17:56:27.270Z,1.17
2023-03-10T17:58:55.038Z,0.67
2023-03-10T18:01:23.940Z,1.10
2023-03-10T18:03:51.130Z,1.63
2023-03-10T18:06:23.353Z,2.13
2023-03-10T18:08:50.828Z,3.00
2023-03-10T18:11:19.396Z,6.37
2023-03-10T18:13:47.046Z,1.33
2023-03-10T18:16:19.894Z,1.17
2023-03-10T18:18:47.638Z,2.97
2023-03-10T18:21:15.276Z,1.87
2023-03-10T18:23:42.993Z,3.13
2023-03-10T18:26:12.038Z,2.07
2023-03-10T18:28:39.422Z,2.93
2023-03-10T18:31:10.969Z,0.87
2023-03-10T18:33:38.260Z,0.57
2023-03-10T18:36:06.529Z,1.00
2023-03-10T18:38:35.096Z,1.63
2023-03-10T18:41:02.880Z,1.80
2023-03-10T18:43:32.207Z,8.57
2023-03-10T18:45:59.528Z,1.20
2023-03-10T18:48:28.469Z,3.93
2023-03-10T18:50:56.727Z,2.20
2023-03-10T18:53:24.663Z,2.03
2023-03-10T18:55:52.181Z,2.73
2023-03-10T18:58:19.829Z,5.77
2023-03-10T19:00:47.260Z,2.63
2023-03-10T19:03:18.784Z,11.87
2023-03-10T19:05:45.868Z,10.70
2023-03-10T19:08:13.013Z,6.20
2023-03-10T19:10:45.325Z,4.07
2023-03-10T19:13:12.719Z,7.43
2023-03-10T19:15:39.864Z,5.37
2023-03-10T19:18:07.413Z,20.57
2023-03-10T19:20:38.678Z,47.90
2023-03-10T19:23:06.789Z,57.93
2023-03-10T19:25:34.032Z,70.87
2023-03-10T19:28:04.253Z,39.47
2023-03-10T19:30:42.468Z,37.80
2023-03-10T19:33:19.470Z,43.37
2023-03-10T19:35:46.415Z,16.87
2023-03-10T19:38:13.418Z,14.50
2023-03-10T19:40:40.422Z,10.10
2023-03-10T19:43:28.958Z,17.83
2023-03-10T19:46:00.501Z,10.83
2023-03-10T19:48:27.592Z,23.97
2023-03-10T19:51:08.029Z,19.80
2023-03-10T19:53:35.396Z,11.63
2023-03-10T19:56:03.829Z,10.97
2023-03-10T19:58:33.033Z,10.17
2023-03-10T20:01:00.375Z,6.83
2023-03-10T20:03:28.625Z,5.87
2023-03-10T20:05:56.553Z,7.03
2023-03-10T20:08:24.032Z,6.20
2023-03-10T20:10:52.186Z,10.10
2023-03-10T20:14:11.071Z,11.80
2023-03-10T20:16:38.217Z,4.73
2023-03-10T20:19:05.086Z,3.97
2023-03-10T20:21:32.233Z,5.80
2023-03-10T20:23:59.199Z,17.67
2023-03-10T20:26:26.289Z,14.97
2023-03-10T20:28:53.162Z,3.97
2023-03-10T20:31:21.981Z,3.00
2023-03-10T20:33:52.200Z,3.37
2023-03-10T20:36:22.545Z,4.63
2023-03-10T20:38:49.425Z,8.33
2023-03-10T20:41:17.131Z,3.30
2023-03-10T20:43:44.316Z,2.47
2023-03-10T20:46:11.958Z,1.57
2023-03-10T20:48:39.153Z,2.47
2023-03-10T20:51:06.166Z,4.53
2023-03-10T20:53:34.758Z,1.23
2023-03-10T20:56:11.342Z,6.10
2023-03-10T21:01:16.477Z,5.23
2023-03-10T21:03:44.299Z,2.90
2023-03-10T21:06:12.013Z,12.33
2023-03-10T21:08:38.942Z,3.70
2023-03-10T21:11:13.641Z,5.93
2023-03-10T21:13:47.018Z,5.63
2023-03-10T21:16:14.178Z,2.70
2023-03-10T21:18:41.297Z,5.77
2023-03-10T21:21:14.542Z,5.77
2023-03-10T21:23:41.960Z,8.27
2023-03-10T21:26:11.233Z,13.97
2023-03-10T21:28:39.510Z,10.83
2023-03-10T21:31:06.690Z,8.97
2023-03-10T21:33:34.413Z,6.77
2023-03-10T21:36:02.405Z,11.60
2023-03-10T21:38:29.852Z,7.37
2023-03-10T21:41:27.645Z,4.67
2023-03-10T21:43:56.329Z,12.83
2023-03-10T21:46:24.846Z,4.60
2023-03-10T21:48:56.537Z,3.23
2023-03-10T21:51:26.697Z,7.30
2023-03-10T23:07:50.415Z,5.50
2023-03-10T23:10:22.500Z,12.33
2023-03-10T23:12:52.322Z,6.83
2023-03-10T23:15:26.007Z,9.30
2023-03-10T23:17:56.846Z,9.07
2023-03-10T23:20:27.260Z,10.00
2023-03-10T23:22:55.493Z,10.87
2023-03-10T23:25:24.489Z,13.47
2023-03-10T23:27:52.498Z,12.37
2023-03-10T23:30:19.590Z,12.73
2023-03-10T23:32:47.527Z,7.50
2023-03-10T23:35:17.082Z,5.80
2023-03-10T23:37:43.985Z,7.40
2023-03-10T23:40:15.013Z,9.53
2023-03-10T23:42:42.623Z,7.37
2023-03-10T23:45:14.904Z,5.77
2023-03-10T23:47:42.075Z,16.30
2023-03-10T23:50:11.166Z,8.63
2023-03-10T23:52:38.151Z,11.53
2023-03-10T23:55:05.499Z,11.17
2023-03-10T23:57:32.408Z,15.27
